Time;durP1;ratioP1;P1;durP2;ratioP2;P2;SDS_P1;SDS_P2;PMS_P1;PMS_P2;Temp;Humidity;BMP_temperature;BMP_pressure;BME280_temperature;BME280_humidity;BME280_pressure;Samples;Min_cycle;Max_cycle;Signal;HPM_P1;HPM_P2
2023/06/06 00:01:02;;;;;;;70.32;66.80;;;;;;;;;;5035744;28;20182;-49
2023/06/06 00:03:28;;;;;;;66.90;63.55;;;;;;;;;;5032760;28;20296;-52
2023/06/06 00:05:54;;;;;;;67.03;63.67;;;;;;;;;;5031611;28;20545;-53
2023/06/06 00:08:23;;;;;;;64.53;61.22;;;;;;;;;;5036838;28;20083;-60
2023/06/06 00:10:49;;;;;;;71.57;67.93;;;;;;;;;;5035940;28;20029;-61
2023/06/06 00:13:15;;;;;;;65.72;62.38;;;;;;;;;;5037645;28;20124;-50
2023/06/06 00:15:40;;;;;;;52.97;50.25;;;;;;;;;;5032985;28;20040;-52
2023/06/06 00:18:06;;;;;;;58.78;55.80;;;;;;;;;;5033531;28;20025;-51
2023/06/06 00:20:35;;;;;;;56.47;53.63;;;;;;;;;;5031722;28;20037;-55
2023/06/06 00:23:01;;;;;;;47.33;44.88;;;;;;;;;;5034296;28;20125;-62
2023/06/06 00:25:26;;;;;;;39.38;37.22;;;;;;;;;;5033383;28;20100;-62
2023/06/06 00:27:51;;;;;;;38.58;36.63;;;;;;;;;;5030527;28;20036;-52
2023/06/06 00:30:17;;;;;;;28.27;26.70;;;;;;;;;;5033875;28;20029;-62
2023/06/06 00:32:43;;;;;;;27.15;25.67;;;;;;;;;;5036730;28;20082;-61
2023/06/06 00:35:09;;;;;;;28.88;27.33;;;;;;;;;;5034888;28;20030;-55
2023/06/06 00:37:35;;;;;;;25.23;23.85;;;;;;;;;;5033738;28;20033;-54
2023/06/06 00:40:00;;;;;;;23.13;21.80;;;;;;;;;;5031441;28;20026;-62
2023/06/06 00:42:25;;;;;;;21.05;19.50;;;;;;;;;;5032016;28;20033;-62
2023/06/06 00:44:51;;;;;;;20.17;19.05;;;;;;;;;;5035610;28;20328;-61
2023/06/06 00:47:16;;;;;;;16.63;15.70;;;;;;;;;;5033782;28;20331;-61
2023/06/06 00:49:45;;;;;;;17.08;15.73;;;;;;;;;;5034172;28;20355;-61
2023/06/06 00:52:11;;;;;;;14.02;13.20;;;;;;;;;;5033734;28;20041;-61
2023/06/06 00:54:37;;;;;;;13.98;13.18;;;;;;;;;;5033154;28;20047;-61
2023/06/06 00:57:03;;;;;;;15.15;14.25;;;;;;;;;;5032736;28;20029;-61
2023/06/06 00:59:29;;;;;;;13.18;12.38;;;;;;;;;;5034387;28;20438;-62
2023/06/06 01:01:55;;;;;;;12.60;11.88;;;;;;;;;;5035429;28;20059;-62
2023/06/06 01:04:20;;;;;;;12.95;12.15;;;;;;;;;;5038358;28;20072;-61
2023/06/06 01:06:46;;;;;;;12.70;11.80;;;;;;;;;;5039202;28;20029;-51
2023/06/06 01:09:14;;;;;;;13.88;13.07;;;;;;;;;;5035068;28;20416;-51
2023/06/06 01:12:07;;;;;;;12.52;11.77;;;;;;;;;;5037890;28;20114;-60
2023/06/06 01:15:02;;;;;;;12.68;11.90;;;;;;;;;;5037996;28;20262;-60
2023/06/06 01:17:28;;;;;;;12.48;11.77;;;;;;;;;;5042936;28;20467;-61
2023/06/06 01:19:57;;;;;;;13.48;12.68;;;;;;;;;;5038311;28;20257;-53
2023/06/06 01:22:27;;;;;;;13.07;12.27;;;;;;;;;;5037045;28;20037;-60
2023/06/06 01:24:54;;;;;;;12.77;12.00;;;;;;;;;;5034797;28;20029;-61
2023/06/06 01:27:21;;;;;;;13.48;12.68;;;;;;;;;;5034792;28;20043;-51
2023/06/06 01:29:47;;;;;;;13.40;12.60;;;;;;;;;;5035794;28;20041;-61
2023/06/06 01:32:30;;;;;;;11.93;11.02;;;;;;;;;;5036958;28;20364;-54
2023/06/06 01:35:14;;;;;;;12.57;11.77;;;;;;;;;;5036751;28;20029;-51
2023/06/06 01:37:48;;;;;;;11.57;10.88;;;;;;;;;;5034321;28;20044;-51
2023/06/06 01:40:17;;;;;;;13.93;13.07;;;;;;;;;;5037621;28;20033;-60
2023/06/06 01:42:47;;;;;;;11.07;10.38;;;;;;;;;;5038063;28;20439;-60
2023/06/06 01:45:16;;;;;;;12.85;12.05;;;;;;;;;;5034999;28;20462;-60
2023/06/06 01:47:42;;;;;;;12.75;11.90;;;;;;;;;;5035620;28;20037;-60
2023/06/06 01:50:09;;;;;;;12.57;11.75;;;;;;;;;;5032784;28;20033;-61
2023/06/06 01:52:36;;;;;;;12.35;11.60;;;;;;;;;;5034806;28;20128;-60
2023/06/06 01:55:02;;;;;;;11.50;10.80;;;;;;;;;;5037749;28;20728;-60
2023/06/06 01:57:27;;;;;;;12.95;12.15;;;;;;;;;;5035337;28;20059;-53
2023/06/06 01:59:54;;;;;;;11.98;11.27;;;;;;;;;;5032429;28;20033;-51
2023/06/06 02:02:19;;;;;;;12.13;11.32;;;;;;;;;;5035848;28;20048;-60
2023/06/06 02:04:45;;;;;;;11.43;10.73;;;;;;;;;;5036906;28;20045;-60
2023/06/06 02:07:12;;;;;;;12.00;11.30;;;;;;;;;;5039345;28;20078;-62
2023/06/06 02:09:37;;;;;;;11.13;10.43;;;;;;;;;;5033301;28;20470;-60
2023/06/06 02:12:03;;;;;;;12.40;11.68;;;;;;;;;;5035287;28;20223;-60
2023/06/06 02:14:28;;;;;;;12.48;11.68;;;;;;;;;;5040584;28;20037;-54
2023/06/06 02:16:54;;;;;;;12.73;11.95;;;;;;;;;;5035086;28;20119;-54
2023/06/06 02:19:19;;;;;;;13.73;12.82;;;;;;;;;;5033540;28;20029;-60
2023/06/06 02:21:45;;;;;;;12.65;11.75;;;;;;;;;;5033308;28;20055;-54
2023/06/06 02:24:10;;;;;;;12.07;11.38;;;;;;;;;;5036100;28;20041;-53
2023/06/06 02:26:36;;;;;;;12.05;11.35;;;;;;;;;;5033122;28;20037;-53
2023/06/06 02:29:03;;;;;;;13.02;12.23;;;;;;;;;;5035718;28;20399;-60
2023/06/06 02:31:29;;;;;;;12.20;11.48;;;;;;;;;;5037971;28;20044;-55
2023/06/06 02:33:54;;;;;;;14.18;13.27;;;;;;;;;;5034452;28;20090;-55
2023/06/06 02:36:19;;;;;;;13.48;12.57;;;;;;;;;;5034042;28;20629;-60
2023/06/06 02:38:45;;;;;;;13.60;12.80;;;;;;;;;;5036152;28;20112;-61
2023/06/06 02:41:11;;;;;;;13.68;12.88;;;;;;;;;;5034121;28;20033;-60
2023/06/06 02:43:36;;;;;;;15.20;14.30;;;;;;;;;;5035419;28;20347;-52
2023/06/06 02:46:01;;;;;;;13.38;12.57;;;;;;;;;;5033556;28;20106;-61
2023/06/06 02:48:27;;;;;;;15.23;14.23;;;;;;;;;;5035844;28;20045;-56
2023/06/06 02:50:52;;;;;;;14.48;13.63;;;;;;;;;;5035287;28;20034;-54
2023/06/06 02:53:18;;;;;;;14.55;13.65;;;;;;;;;;5033789;28;20037;-61
2023/06/06 02:55:44;;;;;;;15.80;14.90;;;;;;;;;;5036150;28;20337;-54
2023/06/06 02:58:28;;;;;;;17.25;16.05;;;;;;;;;;5036100;28;20538;-54
2023/06/06 03:00:57;;;;;;;18.58;17.52;;;;;;;;;;5034829;28;20128;-54
2023/06/06 03:03:24;;;;;;;20.65;19.50;;;;;;;;;;5033226;28;20029;-54
2023/06/06 03:05:51;;;;;;;24.00;22.67;;;;;;;;;;5034545;28;20363;-53
2023/06/06 03:08:20;;;;;;;27.35;25.90;;;;;;;;;;5032721;28;20041;-54
2023/06/06 03:10:47;;;;;;;29.25;27.70;;;;;;;;;;5034246;28;20037;-61
2023/06/06 03:13:13;;;;;;;28.05;26.55;;;;;;;;;;5034934;28;20083;-53
2023/06/06 03:15:44;;;;;;;30.27;28.63;;;;;;;;;;5034086;28;20057;-55
2023/06/06 03:18:17;;;;;;;28.60;26.85;;;;;;;;;;5034588;28;20052;-61
2023/06/06 03:20:46;;;;;;;29.02;27.40;;;;;;;;;;5037402;28;20027;-54
2023/06/06 03:23:12;;;;;;;28.25;26.73;;;;;;;;;;5034633;28;20048;-58
2023/06/06 03:25:44;;;;;;;32.97;31.23;;;;;;;;;;5032300;28;20046;-54
2023/06/06 03:28:10;;;;;;;30.67;29.05;;;;;;;;;;5031299;28;20082;-54
2023/06/06 03:30:36;;;;;;;25.23;23.88;;;;;;;;;;5035083;28;20025;-61
2023/06/06 03:33:03;;;;;;;27.15;25.67;;;;;;;;;;5037132;28;20370;-61
2023/06/06 03:35:31;;;;;;;26.05;24.65;;;;;;;;;;5034183;28;20082;-61
2023/06/06 03:37:57;;;;;;;23.88;22.38;;;;;;;;;;5034373;28;20032;-55
2023/06/06 03:40:23;;;;;;;20.77;19.55;;;;;;;;;;5031759;28;20056;-61
2023/06/06 03:42:52;;;;;;;22.05;20.80;;;;;;;;;;5035079;28;20029;-61
2023/06/06 03:45:18;;;;;;;23.73;22.40;;;;;;;;;;5032890;28;20463;-61
2023/06/06 03:47:44;;;;;;;22.95;21.52;;;;;;;;;;5033395;28;20037;-54
2023/06/06 03:50:10;;;;;;;22.77;21.48;;;;;;;;;;5032977;28;20371;-53
2023/06/06 03:52:36;;;;;;;23.90;22.60;;;;;;;;;;5035563;28;20044;-61
2023/06/06 03:55:02;;;;;;;25.75;24.38;;;;;;;;;;5037182;28;20040;-54
2023/06/06 03:57:28;;;;;;;26.33;24.67;;;;;;;;;;5034527;28;20040;-53
2023/06/06 03:59:55;;;;;;;25.20;23.85;;;;;;;;;;5031856;28;20467;-53
2023/06/06 04:02:20;;;;;;;28.25;26.67;;;;;;;;;;5035085;28;20083;-55
2023/06/06 04:04:51;;;;;;;27.05;25.58;;;;;;;;;;5033368;28;20068;-59
2023/06/06 04:07:17;;;;;;;;;;;;;;;;;;5032416;28;20099;-60
2023/06/06 04:09:42;;;;;;;23.75;22.48;;;;;;;;;;5035137;28;19917;-60
2023/06/06 04:12:08;;;;;;;26.65;25.15;;;;;;;;;;5032469;28;20064;-59
2023/06/06 04:14:34;;;;;;;30.52;28.92;;;;;;;;;;5034192;28;20032;-60
2023/06/06 04:17:01;;;;;;;30.58;28.90;;;;;;;;;;5033537;28;20029;-54
2023/06/06 04:19:27;;;;;;;37.05;35.10;;;;;;;;;;5030040;28;20028;-53
2023/06/06 04:21:52;;;;;;;32.30;30.63;;;;;;;;;;5034079;28;20061;-51
2023/06/06 04:24:17;;;;;;;31.88;30.20;;;;;;;;;;5036170;28;20033;-54
2023/06/06 04:26:43;;;;;;;30.02;28.42;;;;;;;;;;5036072;28;20060;-54
2023/06/06 04:29:08;;;;;;;38.83;36.78;;;;;;;;;;5035632;28;20041;-54
2023/06/06 04:31:35;;;;;;;33.03;31.27;;;;;;;;;;5033003;28;20029;-55
2023/06/06 04:34:01;;;;;;;25.70;24.33;;;;;;;;;;5037632;28;20025;-54
2023/06/06 04:36:26;;;;;;;25.98;24.55;;;;;;;;;;5038522;28;20044;-55
2023/06/06 04:39:00;;;;;;;25.17;23.63;;;;;;;;;;5038813;28;20029;-61
2023/06/06 04:41:26;;;;;;;20.05;18.88;;;;;;;;;;5037995;28;20171;-53
2023/06/06 04:43:51;;;;;;;20.23;19.08;;;;;;;;;;5037779;28;20564;-53
2023/06/06 04:46:23;;;;;;;21.15;20.00;;;;;;;;;;5035941;28;20063;-53
2023/06/06 04:48:53;;;;;;;20.33;19.23;;;;;;;;;;5039636;28;20045;-52
2023/06/06 04:51:23;;;;;;;16.70;15.73;;;;;;;;;;5037351;28;20417;-59
2023/06/06 04:53:50;;;;;;;15.63;14.52;;;;;;;;;;5034135;28;20587;-52
2023/06/06 04:56:17;;;;;;;14.98;14.00;;;;;;;;;;5036355;28;20048;-53
2023/06/06 04:58:45;;;;;;;14.50;13.68;;;;;;;;;;5036495;28;20041;-52
2023/06/06 05:01:12;;;;;;;12.35;11.65;;;;;;;;;;5036094;28;20328;-53
2023/06/06 05:03:38;;;;;;;13.85;11.70;;;;;;;;;;5034881;28;20043;-61
2023/06/06 05:06:05;;;;;;;10.98;10.27;;;;;;;;;;5038429;28;20025;-60
2023/06/06 05:08:32;;;;;;;10.57;9.85;;;;;;;;;;5038701;28;20033;-55
2023/06/06 05:10:58;;;;;;;11.05;10.35;;;;;;;;;;5036659;28;20095;-60
2023/06/06 05:13:23;;;;;;;11.27;10.57;;;;;;;;;;5037560;28;20398;-56
2023/06/06 05:15:49;;;;;;;11.05;10.35;;;;;;;;;;5038502;28;20041;-55
2023/06/06 05:18:15;;;;;;;10.48;9.85;;;;;;;;;;5036315;28;20056;-51
2023/06/06 05:20:41;;;;;;;11.98;10.90;;;;;;;;;;5035882;28;20037;-55
2023/06/06 05:23:07;;;;;;;14.15;13.35;;;;;;;;;;5036430;28;20024;-55
2023/06/06 05:25:32;;;;;;;13.10;12.30;;;;;;;;;;5038728;28;20040;-52
2023/06/06 05:27:57;;;;;;;14.80;13.90;;;;;;;;;;5036239;28;20117;-55
2023/06/06 05:30:23;;;;;;;20.17;18.88;;;;;;;;;;5036086;28;20040;-55
2023/06/06 05:32:48;;;;;;;20.83;19.67;;;;;;;;;;5033640;28;20124;-55
2023/06/06 05:35:14;;;;;;;21.20;19.90;;;;;;;;;;5036750;28;20032;-61
2023/06/06 05:37:41;;;;;;;22.65;21.35;;;;;;;;;;5038751;28;20035;-56
2023/06/06 05:40:08;;;;;;;21.33;20.13;;;;;;;;;;5035996;28;20510;-61
2023/06/06 05:42:33;;;;;;;24.38;22.98;;;;;;;;;;5039977;28;20094;-61
2023/06/06 05:44:59;;;;;;;22.83;21.63;;;;;;;;;;5036822;28;20037;-61
2023/06/06 05:47:24;;;;;;;19.67;18.55;;;;;;;;;;5036436;28;20094;-54
2023/06/06 05:49:49;;;;;;;20.90;19.73;;;;;;;;;;5033208;28;20051;-53
2023/06/06 05:52:15;;;;;;;22.25;21.05;;;;;;;;;;5035988;28;20036;-54
2023/06/06 05:54:40;;;;;;;30.15;28.50;;;;;;;;;;5036168;28;20100;-60
2023/06/06 05:57:21;;;;;;;29.10;27.50;;;;;;;;;;5036762;28;20057;-60
2023/06/06 05:59:46;;;;;;;33.85;32.10;;;;;;;;;;5043817;28;20051;-60
2023/06/06 06:02:14;;;;;;;41.33;39.17;;;;;;;;;;5036099;28;20021;-60
2023/06/06 06:04:43;;;;;;;48.42;45.95;;;;;;;;;;5035516;28;20041;-52
2023/06/06 06:07:08;;;;;;;49.42;46.90;;;;;;;;;;5035445;28;20362;-54
2023/06/06 06:09:35;;;;;;;57.45;54.58;;;;;;;;;;5035055;28;20029;-60
2023/06/06 06:12:00;;;;;;;55.03;52.22;;;;;;;;;;5038023;28;20364;-53
2023/06/06 06:14:26;;;;;;;46.75;44.35;;;;;;;;;;5035909;28;20044;-54
2023/06/06 06:16:51;;;;;;;46.13;43.80;;;;;;;;;;5036460;28;20124;-51
2023/06/06 06:19:16;;;;;;;31.88;30.23;;;;;;;;;;5036784;28;20041;-55
2023/06/06 06:21:42;;;;;;;30.70;29.10;;;;;;;;;;5037692;28;20034;-51
2023/06/06 06:24:07;;;;;;;31.65;29.95;;;;;;;;;;5036298;28;20031;-61
2023/06/06 06:26:33;;;;;;;40.03;37.92;;;;;;;;;;5034319;28;20282;-60
2023/06/06 06:28:58;;;;;;;29.38;27.83;;;;;;;;;;5036503;28;20036;-50
2023/06/06 06:31:24;;;;;;;27.52;26.08;;;;;;;;;;5035133;28;20482;-54
2023/06/06 06:33:50;;;;;;;28.08;26.58;;;;;;;;;;5036005;28;20032;-53
2023/06/06 06:36:16;;;;;;;27.58;26.08;;;;;;;;;;5037640;28;20099;-53
2023/06/06 06:38:41;;;;;;;30.90;29.20;;;;;;;;;;5039013;28;20025;-55
2023/06/06 06:41:06;;;;;;;35.42;33.53;;;;;;;;;;5035654;28;20025;-60
2023/06/06 06:43:32;;;;;;;42.83;40.17;;;;;;;;;;5035345;28;20071;-53
2023/06/06 06:45:57;;;;;;;36.53;34.63;;;;;;;;;;5035941;28;20048;-60
2023/06/06 06:48:22;;;;;;;41.50;39.38;;;;;;;;;;5036873;28;20037;-61
2023/06/06 06:50:48;;;;;;;40.88;38.67;;;;;;;;;;5035672;28;20418;-54
2023/06/06 06:53:13;;;;;;;46.03;43.67;;;;;;;;;;5033599;28;20321;-60
2023/06/06 06:55:41;;;;;;;57.00;54.08;;;;;;;;;;5032974;28;20620;-61
2023/06/06 06:58:06;;;;;;;69.97;66.50;;;;;;;;;;5035261;28;20406;-60
2023/06/06 07:00:33;;;;;;;70.07;66.55;;;;;;;;;;5034534;28;20099;-54
2023/06/06 07:02:59;;;;;;;70.65;67.13;;;;;;;;;;5036783;28;20119;-53
2023/06/06 07:05:25;;;;;;;75.72;71.97;;;;;;;;;;5034482;28;20044;-60
2023/06/06 07:07:53;;;;;;;73.13;69.50;;;;;;;;;;5034883;28;20040;-61
2023/06/06 07:10:20;;;;;;;71.88;68.30;;;;;;;;;;5034554;28;20041;-55
2023/06/06 07:12:47;;;;;;;79.38;75.30;;;;;;;;;;5036439;28;20078;-53
2023/06/06 07:15:13;;;;;;;75.47;71.72;;;;;;;;;;5036896;28;20097;-54
2023/06/06 07:17:38;;;;;;;82.05;77.95;;;;;;;;;;5038879;28;20032;-60
2023/06/06 07:20:05;;;;;;;81.80;77.68;;;;;;;;;;5033533;28;20408;-52
2023/06/06 07:22:36;;;;;;;91.18;86.57;;;;;;;;;;5030972;28;20344;-55
2023/06/06 07:25:02;;;;;;;83.05;78.88;;;;;;;;;;5034881;28;20068;-52
2023/06/06 07:27:29;;;;;;;98.78;93.82;;;;;;;;;;5033969;28;20099;-51
2023/06/06 07:29:54;;;;;;;132.07;125.53;;;;;;;;;;5036223;28;20604;-53
2023/06/06 07:32:20;;;;;;;129.50;123.18;;;;;;;;;;5034514;28;20072;-60
2023/06/06 07:34:45;;;;;;;134.05;127.45;;;;;;;;;;5036545;28;20029;-54
2023/06/06 07:37:11;;;;;;;118.10;112.30;;;;;;;;;;5032868;28;20392;-51
2023/06/06 07:39:36;;;;;;;139.30;132.45;;;;;;;;;;5032461;28;20032;-54
2023/06/06 07:42:02;;;;;;;123.63;117.55;;;;;;;;;;5033240;28;20413;-53
2023/06/06 07:44:27;;;;;;;129.88;123.47;;;;;;;;;;5032579;28;20029;-51
2023/06/06 07:46:52;;;;;;;125.72;119.55;;;;;;;;;;5032600;28;20048;-50
2023/06/06 07:49:18;;;;;;;146.30;139.13;;;;;;;;;;5032639;28;20064;-61
2023/06/06 07:51:45;;;;;;;165.70;157.68;;;;;;;;;;5035004;28;20371;-60
2023/06/06 07:54:11;;;;;;;136.73;129.98;;;;;;;;;;5036583;28;20086;-60
2023/06/06 07:56:37;;;;;;;151.48;144.07;;;;;;;;;;5035964;28;20459;-60
2023/06/06 07:59:03;;;;;;;141.98;134.98;;;;;;;;;;5034707;28;20427;-60
2023/06/06 08:01:29;;;;;;;83.40;79.25;;;;;;;;;;5033682;28;20037;-60
2023/06/06 08:03:55;;;;;;;79.82;75.80;;;;;;;;;;5031415;28;20052;-60
2023/06/06 08:06:23;;;;;;;93.50;88.82;;;;;;;;;;5035473;28;20047;-54
2023/06/06 08:08:49;;;;;;;119.90;114.03;;;;;;;;;;5036409;28;20484;-51
2023/06/06 08:11:15;;;;;;;113.70;108.07;;;;;;;;;;5039415;28;20037;-53
2023/06/06 08:13:41;;;;;;;74.07;70.38;;;;;;;;;;5037116;28;20481;-60
2023/06/06 08:16:06;;;;;;;66.75;63.40;;;;;;;;;;5037817;28;20123;-60
2023/06/06 08:18:32;;;;;;;127.38;121.05;;;;;;;;;;5035969;28;20036;-53
2023/06/06 08:20:57;;;;;;;65.78;62.45;;;;;;;;;;5036872;28;20040;-53
2023/06/06 08:23:23;;;;;;;61.70;58.63;;;;;;;;;;5039367;28;20076;-52
2023/06/06 08:25:48;;;;;;;69.97;66.47;;;;;;;;;;5037845;28;20040;-52
2023/06/06 08:28:14;;;;;;;66.28;62.97;;;;;;;;;;5037268;28;20519;-60
2023/06/06 08:30:39;;;;;;;75.57;71.80;;;;;;;;;;5041637;28;20033;-59
2023/06/06 08:33:05;;;;;;;79.15;75.25;;;;;;;;;;5037017;28;20462;-53
2023/06/06 08:35:30;;;;;;;74.00;70.32;;;;;;;;;;5038101;28;20033;-53
2023/06/06 08:37:55;;;;;;;72.45;68.85;;;;;;;;;;5035101;28;20414;-53
2023/06/06 08:40:21;;;;;;;102.45;97.43;;;;;;;;;;5034461;28;20037;-60
2023/06/06 08:42:50;;;;;;;134.38;127.80;;;;;;;;;;5041865;28;20029;-60
2023/06/06 08:45:20;;;;;;;126.85;120.57;;;;;;;;;;5035655;28;20448;-60
2023/06/06 08:47:48;;;;;;;131.13;124.63;;;;;;;;;;5039399;28;20512;-60
2023/06/06 08:50:15;;;;;;;140.70;133.75;;;;;;;;;;5037666;28;20099;-60
2023/06/06 08:52:42;;;;;;;119.63;113.70;;;;;;;;;;5037389;28;20040;-53
2023/06/06 08:55:08;;;;;;;115.75;110.07;;;;;;;;;;5036459;28;20048;-53
2023/06/06 08:57:34;;;;;;;104.13;99.00;;;;;;;;;;5037200;28;20045;-53
2023/06/06 09:00:11;;;;;;;91.38;86.85;;;;;;;;;;5037990;28;20044;-53
2023/06/06 09:02:40;;;;;;;145.45;138.30;;;;;;;;;;5034972;28;20452;-53
2023/06/06 09:05:06;;;;;;;152.47;144.97;;;;;;;;;;5033719;28;20044;-50
2023/06/06 09:07:32;;;;;;;162.77;154.73;;;;;;;;;;5040269;28;20041;-51
2023/06/06 09:09:58;;;;;;;104.20;99.05;;;;;;;;;;5036500;28;20027;-60
2023/06/06 09:12:23;;;;;;;106.78;101.55;;;;;;;;;;5035795;28;20033;-54
2023/06/06 09:14:49;;;;;;;120.85;114.90;;;;;;;;;;5036270;28;20142;-52
2023/06/06 09:17:15;;;;;;;51.45;48.83;;;;;;;;;;5035422;28;20067;-60
2023/06/06 09:19:45;;;;;;;65.05;61.78;;;;;;;;;;5042062;28;20060;-61
2023/06/06 09:22:10;;;;;;;47.50;45.07;;;;;;;;;;5035337;28;20041;-60
2023/06/06 09:24:43;;;;;;;49.03;46.53;;;;;;;;;;5036101;28;20120;-60
2023/06/06 09:27:26;;;;;;;50.22;47.47;;;;;;;;;;5035794;28;20463;-60
2023/06/06 09:29:52;;;;;;;123.40;117.32;;;;;;;;;;5037727;28;20113;-61
2023/06/06 09:32:26;;;;;;;27.48;26.00;;;;;;;;;;5036830;28;20136;-59
2023/06/06 09:34:53;;;;;;;21.13;19.90;;;;;;;;;;5035095;28;20374;-59
2023/06/06 09:37:21;;;;;;;28.92;27.40;;;;;;;;;;5036803;28;20029;-52
2023/06/06 09:40:10;;;;;;;22.73;21.52;;;;;;;;;;5033622;28;20036;-53
2023/06/06 09:42:37;;;;;;;34.00;32.13;;;;;;;;;;5037383;28;20119;-59
2023/06/06 09:45:11;;;;;;;83.68;79.47;;;;;;;;;;5037140;28;20113;-60
2023/06/06 09:47:44;;;;;;;18.38;17.38;;;;;;;;;;5032889;28;20064;-51
2023/06/06 09:50:11;;;;;;;17.83;16.83;;;;;;;;;;5036957;28;20052;-52
2023/06/06 09:52:37;;;;;;;86.40;82.13;;;;;;;;;;5037050;28;20108;-52
2023/06/06 09:55:07;;;;;;;72.10;68.55;;;;;;;;;;5033744;28;20040;-61
2023/06/06 09:57:36;;;;;;;;;;;;;;;;;;5036523;28;20508;-60
2023/06/06 10:00:15;;;;;;;18.00;16.90;;;;;;;;;;4998777;28;1040621;-52
2023/06/06 10:02:46;;;;;;;72.30;68.68;;;;;;;;;;5036877;28;20091;-60
2023/06/06 10:05:15;;;;;;;87.18;82.88;;;;;;;;;;5037200;28;20180;-60
2023/06/06 10:07:45;;;;;;;93.55;88.95;;;;;;;;;;5037384;28;20032;-60
2023/06/06 10:10:17;;;;;;;94.15;89.53;;;;;;;;;;5037803;28;20114;-60
2023/06/06 10:12:43;;;;;;;78.28;74.32;;;;;;;;;;5038543;28;20064;-60
2023/06/06 10:15:11;;;;;;;94.97;90.30;;;;;;;;;;5032640;28;20371;-60
2023/06/06 10:17:38;;;;;;;76.93;73.05;;;;;;;;;;5033479;28;20073;-61
2023/06/06 10:20:09;;;;;;;94.70;89.88;;;;;;;;;;5035867;28;20043;-61
2023/06/06 10:22:36;;;;;;;77.97;74.13;;;;;;;;;;5035108;28;20044;-61
2023/06/06 10:25:03;;;;;;;57.17;54.30;;;;;;;;;;5035984;28;20454;-61
2023/06/06 10:27:51;;;;;;;71.72;68.10;;;;;;;;;;5037320;28;20040;-60
2023/06/06 10:30:29;;;;;;;62.35;59.20;;;;;;;;;;5035589;28;20037;-61
2023/06/06 10:33:12;;;;;;;62.25;59.15;;;;;;;;;;5035344;28;20041;-60
2023/06/06 10:35:39;;;;;;;63.35;60.10;;;;;;;;;;5033800;28;20508;-61
2023/06/06 10:38:09;;;;;;;53.35;50.55;;;;;;;;;;5038624;28;20225;-60
2023/06/06 10:40:43;;;;;;;64.43;60.85;;;;;;;;;;5035507;28;20033;-60
2023/06/06 10:43:10;;;;;;;61.90;58.75;;;;;;;;;;5037265;28;20525;-61
2023/06/06 10:45:43;;;;;;;56.67;53.80;;;;;;;;;;5032473;28;20132;-61
2023/06/06 10:48:09;;;;;;;59.85;56.67;;;;;;;;;;5035604;28;20403;-49
2023/06/06 10:50:34;;;;;;;51.22;48.45;;;;;;;;;;5032936;28;20041;-51
2023/06/06 10:53:06;;;;;;;54.22;51.50;;;;;;;;;;5035791;28;20352;-61
2023/06/06 10:55:32;;;;;;;64.38;61.17;;;;;;;;;;5036261;28;20423;-60
2023/06/06 10:58:21;;;;;;;64.43;61.17;;;;;;;;;;5033449;28;20096;-61
2023/06/06 11:00:49;;;;;;;61.35;58.28;;;;;;;;;;5033368;28;20033;-61
2023/06/06 11:03:30;;;;;;;56.55;53.65;;;;;;;;;;5035110;28;20055;-61
2023/06/06 11:06:01;;;;;;;56.40;53.55;;;;;;;;;;5034374;28;20232;-60
2023/06/06 11:08:37;;;;;;;53.35;50.63;;;;;;;;;;5029527;28;20037;-50
2023/06/06 11:11:24;;;;;;;52.63;49.97;;;;;;;;;;5033722;28;20144;-52
2023/06/06 11:14:01;;;;;;;51.38;48.78;;;;;;;;;;5035985;28;20060;-50
2023/06/06 11:16:30;;;;;;;56.72;53.83;;;;;;;;;;5037335;28;20535;-52
2023/06/06 11:19:02;;;;;;;49.80;47.22;;;;;;;;;;5032736;28;20042;-60
2023/06/06 11:21:29;;;;;;;56.97;54.10;;;;;;;;;;5033576;28;20463;-60
2023/06/06 11:23:55;;;;;;;49.72;47.15;;;;;;;;;;5036987;28;20543;-60
2023/06/06 11:26:22;;;;;;;56.22;53.35;;;;;;;;;;5036500;28;20048;-60
2023/06/06 11:28:49;;;;;;;54.15;51.40;;;;;;;;;;5033174;28;20657;-60
2023/06/06 11:31:19;;;;;;;53.58;50.75;;;;;;;;;;5031602;28;20045;-60
2023/06/06 11:33:45;;;;;;;51.03;48.42;;;;;;;;;;5035752;28;20133;-52
2023/06/06 11:36:11;;;;;;;51.33;48.70;;;;;;;;;;5033692;28;20055;-60
2023/06/06 11:38:41;;;;;;;50.90;48.30;;;;;;;;;;5038445;28;20083;-50
2023/06/06 11:41:06;;;;;;;;;;;;;;;;;;5033633;28;20033;-59
2023/06/06 11:43:31;;;;;;;54.97;52.20;;;;;;;;;;5032108;28;19975;-59
2023/06/06 11:46:03;;;;;;;53.15;50.45;;;;;;;;;;5035945;28;20369;-59
2023/06/06 11:48:29;;;;;;;58.38;55.45;;;;;;;;;;5033805;28;20378;-59
2023/06/06 11:50:54;;;;;;;52.58;49.92;;;;;;;;;;5032967;28;20047;-50
2023/06/06 11:53:30;;;;;;;54.90;52.10;;;;;;;;;;5034789;28;20569;-50
2023/06/06 11:55:56;;;;;;;40.30;38.20;;;;;;;;;;5033368;28;20094;-53
2023/06/06 11:58:23;;;;;;;34.25;32.47;;;;;;;;;;5033356;28;20037;-50
2023/06/06 12:00:49;;;;;;;35.05;33.25;;;;;;;;;;5033221;28;20033;-60
2023/06/06 12:03:15;;;;;;;48.03;45.58;;;;;;;;;;5041603;28;20076;-60
2023/06/06 12:05:41;;;;;;;43.15;40.95;;;;;;;;;;5032009;28;20034;-59
2023/06/06 12:08:07;;;;;;;50.65;47.50;;;;;;;;;;5031690;28;20375;-60
2023/06/06 12:10:33;;;;;;;34.58;32.67;;;;;;;;;;5034943;28;20037;-60
2023/06/06 12:12:59;;;;;;;44.58;42.28;;;;;;;;;;5036531;28;20422;-59
2023/06/06 12:15:43;;;;;;;22.13;20.92;;;;;;;;;;5041210;28;20033;-51
2023/06/06 12:18:08;;;;;;;30.45;28.88;;;;;;;;;;5032780;28;20111;-60
2023/06/06 12:20:33;;;;;;;30.83;29.23;;;;;;;;;;5033637;28;20462;-59
2023/06/06 12:22:59;;;;;;;24.67;23.38;;;;;;;;;;5035691;28;20025;-59
2023/06/06 12:25:28;;;;;;;25.73;24.27;;;;;;;;;;5032967;28;20467;-60
2023/06/06 12:28:06;;;;;;;24.15;22.85;;;;;;;;;;5033269;28;20039;-51
2023/06/06 12:30:32;;;;;;;28.63;27.13;;;;;;;;;;5033692;28;20481;-50
2023/06/06 12:33:01;;;;;;;25.90;24.50;;;;;;;;;;5035693;28;20034;-51
2023/06/06 12:35:27;;;;;;;26.90;25.50;;;;;;;;;;5032594;28;20033;-51
2023/06/06 12:37:52;;;;;;;26.33;24.90;;;;;;;;;;5034261;28;20041;-52
2023/06/06 12:40:35;;;;;;;24.60;23.20;;;;;;;;;;5031406;28;20037;-58
2023/06/06 12:43:06;;;;;;;30.33;28.75;;;;;;;;;;5033252;28;20337;-58
2023/06/06 12:45:35;;;;;;;22.95;21.75;;;;;;;;;;5034051;28;20124;-52
2023/06/06 12:48:00;;;;;;;23.65;22.35;;;;;;;;;;5032463;28;20040;-59
2023/06/06 12:50:26;;;;;;;22.27;21.08;;;;;;;;;;5035260;28;20033;-49
2023/06/06 12:52:52;;;;;;;26.73;25.27;;;;;;;;;;5032014;28;20033;-58
2023/06/06 12:55:18;;;;;;;33.17;31.45;;;;;;;;;;5037503;28;20087;-59
2023/06/06 12:57:44;;;;;;;26.27;24.88;;;;;;;;;;5039534;28;20075;-59
2023/06/06 13:00:14;;;;;;;25.83;24.42;;;;;;;;;;5039434;28;20183;-60
2023/06/06 13:02:43;;;;;;;31.13;29.42;;;;;;;;;;5034783;28;20033;-59
2023/06/06 13:05:09;;;;;;;34.38;32.58;;;;;;;;;;5036610;28;20147;-60
2023/06/06 13:07:35;;;;;;;38.03;36.03;;;;;;;;;;5036362;28;20131;-53
2023/06/06 13:10:02;;;;;;;42.83;40.65;;;;;;;;;;5041148;28;20264;-53
2023/06/06 13:12:28;;;;;;;37.30;35.38;;;;;;;;;;5037183;28;20513;-60
2023/06/06 13:14:57;;;;;;;48.97;46.42;;;;;;;;;;5036284;28;20037;-54
2023/06/06 13:17:23;;;;;;;39.30;37.30;;;;;;;;;;5036835;28;20136;-61
2023/06/06 13:19:49;;;;;;;45.55;43.25;;;;;;;;;;5034941;28;20498;-59
2023/06/06 13:22:15;;;;;;;45.03;42.75;;;;;;;;;;5038352;28;20468;-59
2023/06/06 13:24:40;;;;;;;44.88;42.58;;;;;;;;;;5036305;28;20060;-51
2023/06/06 13:27:10;;;;;;;42.67;40.47;;;;;;;;;;5036468;28;20471;-51
2023/06/06 13:29:36;;;;;;;42.53;40.33;;;;;;;;;;5035241;28;20037;-48
2023/06/06 13:32:03;;;;;;;44.13;41.90;;;;;;;;;;5036867;28;20542;-52
2023/06/06 13:34:29;;;;;;;45.92;43.55;;;;;;;;;;5037146;28;20040;-51
2023/06/06 13:36:54;;;;;;;48.75;46.22;;;;;;;;;;5037825;28;20037;-50
2023/06/06 13:39:20;;;;;;;52.63;49.95;;;;;;;;;;5035546;28;20162;-52
2023/06/06 13:41:46;;;;;;;53.03;50.35;;;;;;;;;;5036884;28;20037;-51
2023/06/06 13:44:19;;;;;;;60.17;57.17;;;;;;;;;;5045915;28;20085;-52
2023/06/06 13:46:45;;;;;;;58.78;55.70;;;;;;;;;;5037876;28;20029;-53
2023/06/06 13:49:16;;;;;;;49.70;47.17;;;;;;;;;;5034279;28;20041;-51
2023/06/06 13:51:42;;;;;;;39.63;37.63;;;;;;;;;;5036090;28;20049;-53
2023/06/06 13:54:10;;;;;;;43.40;41.15;;;;;;;;;;5036708;28;20090;-51
2023/06/06 13:56:36;;;;;;;40.05;38.00;;;;;;;;;;5036619;28;20041;-52
2023/06/06 13:59:03;;;;;;;29.60;28.05;;;;;;;;;;5034034;28;20056;-51
2023/06/06 14:01:29;;;;;;;55.90;53.08;;;;;;;;;;5033978;28;20037;-49
2023/06/06 14:03:55;;;;;;;58.28;55.38;;;;;;;;;;5036762;28;20035;-50
2023/06/06 14:06:20;;;;;;;53.30;50.60;;;;;;;;;;5035971;28;20033;-50
2023/06/06 14:08:45;;;;;;;53.65;50.92;;;;;;;;;;5034460;28;20467;-51
2023/06/06 14:11:13;;;;;;;50.88;48.25;;;;;;;;;;5035695;28;20033;-52
2023/06/06 14:13:39;;;;;;;43.70;41.45;;;;;;;;;;5039397;28;20131;-51
2023/06/06 14:16:05;;;;;;;27.90;26.40;;;;;;;;;;5033542;28;20504;-49
2023/06/06 14:18:31;;;;;;;35.08;33.17;;;;;;;;;;5034301;28;20124;-52